createdAt,value
2019-03-31T00:00:49.670Z,51.83
2019-03-31T00:01:56.008Z,55.77
2019-03-31T00:03:01.682Z,57.87
2019-03-31T00:04:07.076Z,58.92
2019-03-31T00:05:12.739Z,54.15
2019-03-31T00:06:18.685Z,58.20
2019-03-31T00:07:24.271Z,60.93
2019-03-31T00:08:29.727Z,55.13
2019-03-31T00:09:37.605Z,57.67
2019-03-31T00:10:42.859Z,56.43
2019-03-31T00:11:48.168Z,57.17
2019-03-31T00:12:53.425Z,56.23
2019-03-31T00:13:58.667Z,56.18
2019-03-31T00:15:04.441Z,57.43
2019-03-31T00:16:09.620Z,55.23
2019-03-31T00:17:16.032Z,54.73
2019-03-31T00:18:21.180Z,57.80
2019-03-31T00:19:26.498Z,59.30
2019-03-31T00:20:31.938Z,60.40
2019-03-31T00:21:37.399Z,59.53
2019-03-31T00:22:42.659Z,63.27
2019-03-31T00:23:47.887Z,64.90
2019-03-31T00:24:53.659Z,64.13
2019-03-31T00:25:59.011Z,65.73
2019-03-31T00:27:04.569Z,59.03
2019-03-31T00:28:09.870Z,61.50
2019-03-31T00:29:15.465Z,64.13
2019-03-31T00:30:20.740Z,56.33
2019-03-31T00:31:26.055Z,67.23
2019-03-31T00:32:31.704Z,59.70
2019-03-31T00:33:39.657Z,62.45
2019-03-31T00:34:44.994Z,61.40
2019-03-31T00:35:50.280Z,63.43
2019-03-31T00:36:55.672Z,58.67
2019-03-31T00:38:01.039Z,61.93
2019-03-31T00:39:08.731Z,61.03
2019-03-31T00:40:14.193Z,58.77
2019-03-31T00:41:19.508Z,66.90
2019-03-31T00:42:24.713Z,59.93
2019-03-31T00:43:30.195Z,65.03
2019-03-31T00:44:35.567Z,63.13
2019-03-31T00:45:40.981Z,57.90
2019-03-31T00:46:46.204Z,64.47
2019-03-31T00:47:51.532Z,63.33
2019-03-31T00:48:56.876Z,61.03
2019-03-31T00:50:02.183Z,60.47
2019-03-31T00:51:07.504Z,64.73
2019-03-31T00:52:12.779Z,62.60
2019-03-31T00:53:18.471Z,62.10
2019-03-31T00:54:23.738Z,60.77
2019-03-31T00:55:29.129Z,63.53
2019-03-31T00:56:34.466Z,66.90
2019-03-31T00:57:39.964Z,70.30
2019-03-31T00:58:45.293Z,62.77
2019-03-31T00:59:50.594Z,64.70
2019-03-31T01:01:15.460Z,63.50
2019-03-31T01:02:25.497Z,60.53
2019-03-31T01:03:32.411Z,66.57
2019-03-31T01:04:38.915Z,59.07
2019-03-31T01:05:45.053Z,63.83
2019-03-31T01:06:54.410Z,66.07
2019-03-31T01:08:00.845Z,62.10
2019-03-31T01:09:19.275Z,63.40
2019-03-31T01:10:25.096Z,63.83
2019-03-31T01:11:30.718Z,65.13
2019-03-31T01:12:36.260Z,63.47
2019-03-31T01:13:41.884Z,59.83
2019-03-31T01:14:47.247Z,67.77
2019-03-31T01:15:55.648Z,64.10
2019-03-31T01:17:02.346Z,62.87
2019-03-31T01:18:08.562Z,65.37
2019-03-31T01:19:14.485Z,62.87
2019-03-31T01:20:19.845Z,62.43
2019-03-31T01:21:25.181Z,64.23
2019-03-31T01:22:30.593Z,66.37
2019-03-31T01:23:36.385Z,62.75
2019-03-31T01:24:41.681Z,63.03
2019-03-31T01:25:47.112Z,62.47
2019-03-31T01:26:52.581Z,63.28
2019-03-31T01:27:58.109Z,63.60
2019-03-31T01:29:03.869Z,67.73
2019-03-31T01:30:10.370Z,66.53
2019-03-31T01:31:15.724Z,61.80
2019-03-31T01:32:21.162Z,66.17
2019-03-31T01:33:26.695Z,65.13
2019-03-31T01:34:32.139Z,62.47
2019-03-31T01:35:40.373Z,58.97
2019-03-31T01:36:45.705Z,67.67
2019-03-31T01:37:51.035Z,66.07
2019-03-31T01:38:56.742Z,62.88
2019-03-31T01:40:02.107Z,70.70
2019-03-31T01:41:07.463Z,68.50
2019-03-31T01:42:12.848Z,60.53
2019-03-31T01:43:18.381Z,78.27
2019-03-31T01:44:23.949Z,66.93
2019-03-31T01:45:29.376Z,69.97
2019-03-31T01:46:34.974Z,68.37
2019-03-31T01:47:40.561Z,71.03
2019-03-31T01:48:45.892Z,65.07
2019-03-31T01:49:51.139Z,65.00
2019-03-31T01:50:56.503Z,71.57
2019-03-31T01:52:02.015Z,65.83
2019-03-31T01:53:07.625Z,69.83
2019-03-31T01:54:13.278Z,72.33
2019-03-31T01:55:20.488Z,66.67
2019-03-31T01:56:26.569Z,68.40
2019-03-31T01:57:32.562Z,64.50
2019-03-31T01:58:38.642Z,67.95
2019-03-31T01:59:47.027Z,67.87
2019-03-31T02:00:56.132Z,64.63
2019-03-31T02:02:04.298Z,69.60
2019-03-31T02:03:09.885Z,69.87
2019-03-31T02:04:16.090Z,69.93
2019-03-31T02:05:22.060Z,67.30
2019-03-31T02:06:28.069Z,75.93
2019-03-31T02:07:34.249Z,68.23
2019-03-31T02:08:40.702Z,70.17
2019-03-31T02:09:46.799Z,71.87
2019-03-31T02:10:52.850Z,76.80
2019-03-31T02:11:58.875Z,73.27
2019-03-31T02:13:04.951Z,80.13
2019-03-31T02:14:10.289Z,79.50
2019-03-31T02:15:16.461Z,75.20
2019-03-31T02:16:22.359Z,74.37
2019-03-31T02:17:28.398Z,72.53
2019-03-31T02:18:34.357Z,75.47
2019-03-31T02:19:40.214Z,77.57
2019-03-31T02:20:46.228Z,80.47
2019-03-31T02:21:52.791Z,71.20
2019-03-31T02:22:58.751Z,70.93
2019-03-31T02:24:04.873Z,74.50
2019-03-31T02:25:10.914Z,83.17
2019-03-31T02:26:17.102Z,80.73
2019-03-31T02:27:23.039Z,72.87
2019-03-31T02:28:29.324Z,79.70
2019-03-31T02:29:35.291Z,73.13
2019-03-31T02:30:41.327Z,74.90
2019-03-31T02:31:48.040Z,84.53
2019-03-31T02:32:54.141Z,76.23
2019-03-31T02:34:00.306Z,71.77
2019-03-31T02:35:06.542Z,79.07
2019-03-31T02:36:12.429Z,76.40
2019-03-31T02:37:18.556Z,77.73
2019-03-31T02:38:24.484Z,72.13
2019-03-31T02:39:30.476Z,74.33
2019-03-31T02:40:36.812Z,83.63
2019-03-31T02:41:43.106Z,85.50
2019-03-31T02:42:49.164Z,82.50
2019-03-31T02:43:55.622Z,88.27
2019-03-31T02:45:01.501Z,78.97
2019-03-31T02:46:07.756Z,77.80
2019-03-31T02:47:13.779Z,77.00
2019-03-31T02:48:20.056Z,76.37
2019-03-31T02:49:26.126Z,78.27
2019-03-31T02:50:47.389Z,79.03
2019-03-31T02:51:53.564Z,89.60
2019-03-31T02:52:59.552Z,85.03
2019-03-31T02:54:05.867Z,79.57
2019-03-31T02:55:11.905Z,80.97
2019-03-31T02:56:18.839Z,83.40
2019-03-31T02:57:25.839Z,83.03
2019-03-31T02:58:32.769Z,82.10
2019-03-31T02:59:39.023Z,79.63
2019-03-31T03:00:45.396Z,89.90
2019-03-31T03:01:53.179Z,72.77
2019-03-31T03:03:00.256Z,89.47
2019-03-31T03:04:08.039Z,80.30
2019-03-31T03:05:19.721Z,85.33
2019-03-31T03:06:23.878Z,88.20
2019-03-31T03:07:31.050Z,86.77
2019-03-31T03:08:38.936Z,82.87
2019-03-31T03:09:46.869Z,91.40
2019-03-31T03:10:55.003Z,91.83
2019-03-31T03:12:01.535Z,90.40
2019-03-31T03:13:10.200Z,86.40
2019-03-31T03:14:17.683Z,82.20
2019-03-31T03:15:31.030Z,80.57
2019-03-31T03:16:37.208Z,86.63
2019-03-31T03:17:43.255Z,80.60
2019-03-31T03:18:50.087Z,83.07
2019-03-31T03:19:56.323Z,80.83
2019-03-31T03:21:02.402Z,85.53
2019-03-31T03:22:08.492Z,81.70
2019-03-31T03:23:14.679Z,77.60
2019-03-31T03:24:20.751Z,81.63
2019-03-31T03:25:26.584Z,74.20
2019-03-31T03:26:32.825Z,75.67
2019-03-31T03:27:38.716Z,72.43
2019-03-31T03:28:44.822Z,78.70
2019-03-31T03:29:50.999Z,77.37
2019-03-31T03:30:57.331Z,72.67
2019-03-31T03:32:03.660Z,72.13
2019-03-31T03:33:16.445Z,69.53
2019-03-31T03:34:17.343Z,69.50
2019-03-31T03:35:23.365Z,77.73
2019-03-31T03:36:29.234Z,78.03
2019-03-31T03:37:35.351Z,72.20
2019-03-31T03:38:41.531Z,75.07
2019-03-31T03:39:47.453Z,73.63
2019-03-31T03:40:53.395Z,68.23
2019-03-31T03:41:59.627Z,70.03
2019-03-31T03:43:05.667Z,72.07
2019-03-31T03:44:11.834Z,67.03
2019-03-31T03:45:17.965Z,70.77
2019-03-31T03:46:23.683Z,72.97
2019-03-31T03:47:29.046Z,69.23
2019-03-31T03:48:34.707Z,69.73
2019-03-31T03:49:40.240Z,68.63
2019-03-31T03:50:45.519Z,62.67
2019-03-31T03:51:51.305Z,70.83
2019-03-31T03:52:56.567Z,65.57
2019-03-31T03:54:01.925Z,77.67
2019-03-31T03:55:07.197Z,74.73
2019-03-31T03:56:12.465Z,74.23
2019-03-31T03:57:17.762Z,73.83
2019-03-31T03:58:23.120Z,71.67
2019-03-31T03:59:28.533Z,67.73
2019-03-31T04:00:33.903Z,63.10
2019-03-31T04:01:39.278Z,70.03
2019-03-31T04:02:44.547Z,71.97
2019-03-31T04:03:50.258Z,66.50
2019-03-31T04:04:55.509Z,64.67
2019-03-31T04:06:00.872Z,67.20
2019-03-31T04:07:06.068Z,65.17
2019-03-31T04:08:11.321Z,57.43
2019-03-31T04:09:16.769Z,70.20
2019-03-31T04:11:11.443Z,61.47
2019-03-31T04:12:16.803Z,63.73
2019-03-31T04:13:22.109Z,67.00
2019-03-31T04:14:27.445Z,70.90
2019-03-31T04:15:32.887Z,64.53
2019-03-31T04:16:38.211Z,67.00
2019-03-31T04:17:43.487Z,60.90
2019-03-31T04:18:48.855Z,55.90
2019-03-31T04:19:54.195Z,67.13
2019-03-31T04:20:59.475Z,62.13
2019-03-31T04:22:04.718Z,60.97
2019-03-31T04:23:10.023Z,57.50
2019-03-31T04:24:15.331Z,59.23
2019-03-31T04:25:20.611Z,61.63
2019-03-31T04:26:26.106Z,60.27
2019-03-31T04:27:31.443Z,59.47
2019-03-31T04:28:36.685Z,61.00
2019-03-31T04:29:41.857Z,58.40
2019-03-31T04:30:47.118Z,58.43
2019-03-31T04:31:52.694Z,58.63
2019-03-31T04:32:57.947Z,58.47
2019-03-31T04:34:03.194Z,54.67
2019-03-31T04:35:08.438Z,57.80
2019-03-31T04:36:13.729Z,66.77
2019-03-31T04:37:18.938Z,58.90
2019-03-31T04:38:24.190Z,58.87
2019-03-31T04:39:29.438Z,61.20
2019-03-31T04:40:35.110Z,55.77
2019-03-31T04:41:40.429Z,55.90
2019-03-31T04:42:45.831Z,54.87
2019-03-31T04:43:51.591Z,52.10
2019-03-31T04:44:56.855Z,59.73
2019-03-31T04:46:02.153Z,52.03
2019-03-31T04:47:07.402Z,53.93
2019-03-31T04:48:12.751Z,58.40
2019-03-31T04:49:17.997Z,56.17
2019-03-31T04:50:23.319Z,52.67
2019-03-31T04:51:28.682Z,53.63
2019-03-31T04:52:33.973Z,49.27
2019-03-31T04:53:39.324Z,53.70
2019-03-31T04:54:44.641Z,50.63
2019-03-31T04:55:50.144Z,55.77
2019-03-31T04:56:55.373Z,54.30
2019-03-31T04:58:00.668Z,47.43
2019-03-31T04:59:06.005Z,50.67
2019-03-31T05:00:11.393Z,55.63
2019-03-31T05:01:16.734Z,50.80
2019-03-31T05:02:22.343Z,44.53
2019-03-31T05:03:27.640Z,51.33
2019-03-31T05:04:32.921Z,50.47
2019-03-31T05:05:38.200Z,54.17
2019-03-31T05:06:43.572Z,53.83
2019-03-31T05:07:48.910Z,51.27
2019-03-31T05:08:54.473Z,47.53
2019-03-31T05:09:59.775Z,52.63
2019-03-31T05:11:05.115Z,57.87
2019-03-31T05:12:12.149Z,46.77
2019-03-31T05:13:17.439Z,48.23
2019-03-31T05:14:25.495Z,50.97
2019-03-31T05:15:30.733Z,48.07
2019-03-31T05:16:35.961Z,49.47
2019-03-31T05:17:41.159Z,48.37
2019-03-31T05:18:46.446Z,50.67
2019-03-31T05:19:51.663Z,47.27
2019-03-31T05:20:56.917Z,49.13
2019-03-31T05:22:02.471Z,58.67
2019-03-31T05:23:07.784Z,45.50
2019-03-31T05:24:13.325Z,45.50
2019-03-31T05:25:18.554Z,47.97
2019-03-31T05:26:23.800Z,50.33
2019-03-31T05:27:29.105Z,47.83
2019-03-31T05:28:34.377Z,48.23
2019-03-31T05:29:39.628Z,48.30
2019-03-31T05:30:44.923Z,49.50
2019-03-31T05:31:50.379Z,43.57
2019-03-31T05:32:55.854Z,44.93
2019-03-31T05:34:01.492Z,44.80
2019-03-31T05:35:06.918Z,51.67
2019-03-31T05:36:12.284Z,51.87
2019-03-31T05:37:17.538Z,48.07
2019-03-31T05:38:23.373Z,54.77
2019-03-31T05:39:28.786Z,50.43
2019-03-31T05:40:33.995Z,45.90
2019-03-31T05:41:39.564Z,47.23
2019-03-31T05:42:44.899Z,49.97
2019-03-31T05:44:04.872Z,52.20
2019-03-31T05:44:57.962Z,45.27
2019-03-31T05:46:03.726Z,50.00
2019-03-31T05:47:09.225Z,50.17
2019-03-31T05:48:14.525Z,52.50
2019-03-31T05:49:20.246Z,46.13
2019-03-31T05:50:25.632Z,54.77
2019-03-31T05:51:31.311Z,53.20
2019-03-31T05:52:36.904Z,53.23
2019-03-31T05:53:42.359Z,52.37
2019-03-31T05:54:47.820Z,54.80
2019-03-31T05:55:53.195Z,54.33
2019-03-31T05:56:58.537Z,52.87
2019-03-31T05:58:04.025Z,54.90
2019-03-31T05:59:09.565Z,54.27
2019-03-31T06:00:17.852Z,55.57
2019-03-31T06:01:23.175Z,53.77
2019-03-31T06:02:28.626Z,53.43
2019-03-31T06:03:33.890Z,52.33
2019-03-31T06:04:39.217Z,57.93
2019-03-31T06:05:44.561Z,51.87
2019-03-31T06:06:49.773Z,58.00
2019-03-31T06:07:56.097Z,54.13
2019-03-31T06:09:01.328Z,51.53
2019-03-31T06:10:07.189Z,50.77
2019-03-31T06:11:12.465Z,50.63
2019-03-31T06:12:17.814Z,55.57
2019-03-31T06:13:23.014Z,53.13
2019-03-31T06:14:28.358Z,50.60
2019-03-31T06:15:33.636Z,51.93
2019-03-31T06:16:38.860Z,42.00
2019-03-31T06:17:44.125Z,52.17
2019-03-31T06:18:49.336Z,56.03
2019-03-31T06:19:54.874Z,46.03
2019-03-31T06:21:00.142Z,49.23
2019-03-31T06:22:05.482Z,54.60
2019-03-31T06:23:10.976Z,44.20
2019-03-31T06:24:16.263Z,49.17
2019-03-31T06:25:21.536Z,50.67
2019-03-31T06:26:26.869Z,51.17
2019-03-31T06:27:32.072Z,45.60
2019-03-31T06:28:37.358Z,52.90
2019-03-31T06:29:42.603Z,51.73
2019-03-31T06:30:47.944Z,45.13
2019-03-31T06:31:53.371Z,47.30
2019-03-31T06:32:58.607Z,50.17
2019-03-31T06:34:03.978Z,48.57
2019-03-31T06:35:09.355Z,53.03
2019-03-31T06:36:14.754Z,44.87
2019-03-31T06:37:20.011Z,49.83
2019-03-31T06:38:25.262Z,47.30
2019-03-31T06:39:34.006Z,48.33
2019-03-31T06:40:37.619Z,45.83
2019-03-31T06:41:42.954Z,47.20
2019-03-31T06:42:48.167Z,47.80
2019-03-31T06:43:53.676Z,46.30
2019-03-31T06:44:58.945Z,48.60
2019-03-31T06:46:04.308Z,51.47
2019-03-31T06:47:09.700Z,43.73
2019-03-31T06:48:15.021Z,44.83
2019-03-31T06:49:20.371Z,46.07
2019-03-31T06:50:25.760Z,39.67
2019-03-31T06:51:30.942Z,42.37
2019-03-31T06:52:36.398Z,46.53
2019-03-31T06:53:41.998Z,43.87
2019-03-31T06:54:47.233Z,46.50
2019-03-31T06:55:52.861Z,42.57
2019-03-31T06:56:58.135Z,43.67
2019-03-31T06:58:03.491Z,39.80
2019-03-31T06:59:08.757Z,39.10
2019-03-31T07:00:14.619Z,39.27
2019-03-31T07:01:20.018Z,41.30
2019-03-31T07:02:25.269Z,38.23
2019-03-31T07:03:30.570Z,39.10
2019-03-31T07:04:35.751Z,35.30
2019-03-31T07:05:41.308Z,43.93
2019-03-31T07:06:46.494Z,37.37
2019-03-31T07:07:52.343Z,38.40
2019-03-31T07:08:57.719Z,38.53
2019-03-31T07:10:02.963Z,37.30
2019-03-31T07:11:08.219Z,37.77
2019-03-31T07:12:13.544Z,32.97
2019-03-31T07:13:18.843Z,33.77
2019-03-31T07:14:24.249Z,37.57
2019-03-31T07:15:29.447Z,41.43
2019-03-31T07:16:34.769Z,40.53
2019-03-31T07:17:40.506Z,36.97
2019-03-31T07:18:45.809Z,39.67
2019-03-31T07:19:51.036Z,36.10
2019-03-31T07:20:56.414Z,38.40
2019-03-31T07:22:01.792Z,36.97
2019-03-31T07:23:07.198Z,40.00
2019-03-31T07:24:12.599Z,34.73
2019-03-31T07:25:17.891Z,39.07
2019-03-31T07:26:23.240Z,32.60
2019-03-31T07:27:28.461Z,32.35
2019-03-31T07:28:33.829Z,34.47
2019-03-31T07:29:39.133Z,31.63
2019-03-31T07:30:44.410Z,32.13
2019-03-31T07:31:49.841Z,32.05
2019-03-31T07:32:55.134Z,38.10
2019-03-31T07:34:00.414Z,34.57
2019-03-31T07:35:17.875Z,30.20
2019-03-31T07:36:12.848Z,33.57
2019-03-31T07:37:18.129Z,36.48
2019-03-31T07:38:23.575Z,35.88
2019-03-31T07:39:29.516Z,32.23
2019-03-31T07:40:35.003Z,33.13
2019-03-31T07:41:40.413Z,32.67
2019-03-31T07:42:45.830Z,28.47
2019-03-31T07:43:51.217Z,29.73
2019-03-31T07:44:56.442Z,30.43
2019-03-31T07:46:01.728Z,29.60
2019-03-31T07:47:06.995Z,31.30
2019-03-31T07:48:12.330Z,27.77
2019-03-31T07:49:17.760Z,29.70
2019-03-31T07:50:23.359Z,32.57
2019-03-31T07:51:28.668Z,28.20
2019-03-31T07:52:34.110Z,30.63
2019-03-31T07:53:39.455Z,27.87
2019-03-31T07:54:44.742Z,28.47
2019-03-31T07:55:50.162Z,33.73
2019-03-31T07:56:55.529Z,29.67
2019-03-31T07:58:00.740Z,31.00
2019-03-31T07:59:06.078Z,28.70
2019-03-31T08:00:14.362Z,27.07
2019-03-31T08:01:19.579Z,25.90
2019-03-31T08:02:25.132Z,29.67
2019-03-31T08:03:32.730Z,28.80
2019-03-31T08:04:37.974Z,27.80
2019-03-31T08:05:43.326Z,26.27
2019-03-31T08:06:48.570Z,25.83
2019-03-31T08:07:54.285Z,26.77
2019-03-31T08:08:59.586Z,26.03
2019-03-31T08:10:05.541Z,26.00
2019-03-31T08:11:10.874Z,26.25
2019-03-31T08:12:16.376Z,27.17
2019-03-31T08:13:21.724Z,25.60
2019-03-31T08:14:27.022Z,28.10
2019-03-31T08:15:32.368Z,26.73
2019-03-31T08:16:37.775Z,27.03
2019-03-31T08:17:43.037Z,27.10
2019-03-31T08:18:48.469Z,28.07
2019-03-31T08:19:54.614Z,31.57
2019-03-31T08:20:59.921Z,26.13
2019-03-31T08:22:05.412Z,28.13
2019-03-31T08:23:10.875Z,27.40
2019-03-31T08:24:16.127Z,26.70
2019-03-31T08:25:21.604Z,30.20
2019-03-31T08:26:26.873Z,25.48
2019-03-31T08:27:32.140Z,25.70
2019-03-31T08:28:37.427Z,22.07
2019-03-31T08:29:43.338Z,30.43
2019-03-31T08:30:48.596Z,24.57
2019-03-31T08:31:54.289Z,25.80
2019-03-31T08:32:59.595Z,25.10
2019-03-31T08:34:04.923Z,30.10
2019-03-31T08:35:11.011Z,25.40
2019-03-31T08:36:16.346Z,25.37
2019-03-31T08:37:21.745Z,26.53
2019-03-31T08:38:27.152Z,25.03
2019-03-31T08:39:32.467Z,25.00
2019-03-31T08:40:37.721Z,25.13
2019-03-31T08:41:43.034Z,22.70
2019-03-31T08:42:49.476Z,22.07
2019-03-31T08:43:55.092Z,19.77
2019-03-31T08:45:00.389Z,21.97
2019-03-31T08:46:05.722Z,18.47
2019-03-31T08:47:37.930Z,16.07
2019-03-31T08:48:39.603Z,17.33
2019-03-31T08:49:44.878Z,19.87
2019-03-31T08:50:50.497Z,20.17
2019-03-31T08:51:55.903Z,19.87
2019-03-31T08:53:01.178Z,18.40
2019-03-31T08:54:06.501Z,19.57
2019-03-31T08:55:13.630Z,23.97
2019-03-31T08:56:18.984Z,19.30
2019-03-31T08:57:24.229Z,17.17
2019-03-31T08:58:29.693Z,17.43
2019-03-31T08:59:35.694Z,19.77
2019-03-31T09:00:54.269Z,15.80
2019-03-31T09:02:03.250Z,24.43
2019-03-31T09:03:08.180Z,15.23
2019-03-31T09:04:13.585Z,17.93
2019-03-31T09:05:18.871Z,20.23
2019-03-31T09:06:24.775Z,17.17
2019-03-31T09:07:30.126Z,17.67
2019-03-31T09:08:35.519Z,21.10
2019-03-31T09:09:41.041Z,17.57
2019-03-31T09:10:46.380Z,15.83
2019-03-31T09:11:51.802Z,15.30
2019-03-31T09:12:57.137Z,16.77
2019-03-31T09:14:02.373Z,17.07
2019-03-31T09:15:08.792Z,14.60
2019-03-31T09:16:14.291Z,15.90
2019-03-31T09:17:19.454Z,16.50
2019-03-31T09:18:25.097Z,15.97
2019-03-31T09:19:32.438Z,18.40
2019-03-31T09:20:37.709Z,16.73
2019-03-31T09:21:43.018Z,15.47
2019-03-31T09:22:48.401Z,14.60
2019-03-31T09:23:53.655Z,13.73
2019-03-31T09:24:58.949Z,16.13
2019-03-31T09:26:04.421Z,13.23
2019-03-31T09:27:09.722Z,14.63
2019-03-31T09:28:15.109Z,13.65
2019-03-31T09:29:20.493Z,13.13
2019-03-31T09:30:25.993Z,13.80
2019-03-31T09:31:31.237Z,13.53
2019-03-31T09:32:36.566Z,13.33
2019-03-31T09:33:41.837Z,11.15
2019-03-31T09:34:47.230Z,14.58
2019-03-31T09:35:52.615Z,10.57
2019-03-31T09:36:57.968Z,17.23
2019-03-31T09:38:03.354Z,11.03
2019-03-31T09:39:08.896Z,12.07
2019-03-31T09:40:15.179Z,14.00
2019-03-31T09:41:20.425Z,12.97
2019-03-31T09:42:26.085Z,10.20
2019-03-31T09:43:31.343Z,10.97
2019-03-31T09:44:36.699Z,11.93
2019-03-31T09:45:41.919Z,12.37
2019-03-31T09:46:47.212Z,14.20
2019-03-31T09:47:52.559Z,13.90
2019-03-31T09:48:57.829Z,18.20
2019-03-31T09:50:03.195Z,11.37
2019-03-31T09:51:08.495Z,11.37
2019-03-31T09:52:14.193Z,12.17
2019-03-31T09:53:19.452Z,12.33
2019-03-31T09:54:24.782Z,13.67
2019-03-31T09:55:30.124Z,11.90
2019-03-31T09:56:35.662Z,11.60
2019-03-31T09:57:40.985Z,10.93
2019-03-31T09:58:46.346Z,12.25
2019-03-31T09:59:51.829Z,12.65
2019-03-31T10:00:57.362Z,13.07
2019-03-31T10:02:03.013Z,12.80
2019-03-31T10:03:08.353Z,14.37
2019-03-31T10:04:14.106Z,13.75
2019-03-31T10:05:19.477Z,12.03
2019-03-31T10:06:30.532Z,12.03
2019-03-31T10:07:32.773Z,10.55
2019-03-31T10:08:38.387Z,14.57
2019-03-31T10:09:44.694Z,16.00
2019-03-31T10:10:50.328Z,11.23
2019-03-31T10:11:56.444Z,11.37
2019-03-31T10:13:02.050Z,11.43
2019-03-31T10:14:07.594Z,14.18
2019-03-31T10:15:15.077Z,14.90
2019-03-31T10:16:20.589Z,13.50
2019-03-31T10:17:25.868Z,13.50
2019-03-31T10:18:31.365Z,11.80
2019-03-31T10:19:37.234Z,11.63
2019-03-31T10:20:42.913Z,11.67
2019-03-31T10:21:48.686Z,11.37
2019-03-31T10:22:54.073Z,13.13
2019-03-31T10:23:59.850Z,12.00
2019-03-31T10:25:05.754Z,12.88
2019-03-31T10:26:11.291Z,11.53
2019-03-31T10:27:17.081Z,12.13
2019-03-31T10:28:22.494Z,13.30
2019-03-31T10:29:28.094Z,11.28
2019-03-31T10:30:34.909Z,11.43
2019-03-31T10:31:40.528Z,12.30
2019-03-31T10:32:47.521Z,12.73
2019-03-31T10:33:57.259Z,12.75
2019-03-31T10:35:03.320Z,13.05
2019-03-31T10:36:08.655Z,15.73
2019-03-31T10:37:14.028Z,14.10
2019-03-31T10:38:19.392Z,12.73
2019-03-31T10:39:24.724Z,14.30
2019-03-31T10:40:30.300Z,14.60
2019-03-31T10:41:35.563Z,15.00
2019-03-31T10:42:40.884Z,16.73
2019-03-31T10:43:46.187Z,14.30
2019-03-31T10:44:51.734Z,14.17
2019-03-31T10:45:57.663Z,13.87
2019-03-31T10:47:02.999Z,16.03
2019-03-31T10:48:20.271Z,13.77
2019-03-31T10:49:16.237Z,14.53
2019-03-31T10:50:21.776Z,15.90
2019-03-31T10:51:27.500Z,12.93
2019-03-31T10:52:33.324Z,18.87
2019-03-31T10:53:38.796Z,13.33
2019-03-31T10:54:44.409Z,14.37
2019-03-31T10:55:50.352Z,14.63
2019-03-31T10:56:55.874Z,15.23
2019-03-31T10:58:01.881Z,18.60
2019-03-31T10:59:07.505Z,16.30
2019-03-31T11:00:13.851Z,14.70
2019-03-31T11:01:19.198Z,11.37
2019-03-31T11:02:25.036Z,13.67
2019-03-31T11:03:33.045Z,10.93
2019-03-31T11:04:37.609Z,14.37
2019-03-31T11:05:43.016Z,12.07
2019-03-31T11:06:58.815Z,11.13
2019-03-31T11:07:55.768Z,12.20
2019-03-31T11:09:01.082Z,12.53
2019-03-31T11:10:06.961Z,10.50
2019-03-31T11:11:12.700Z,9.23
2019-03-31T11:12:18.575Z,10.00
2019-03-31T11:13:24.223Z,9.07
2019-03-31T11:14:29.948Z,11.07
2019-03-31T11:15:35.548Z,12.75
2019-03-31T11:16:40.863Z,11.30
2019-03-31T11:17:46.288Z,10.27
2019-03-31T11:18:51.852Z,11.57
2019-03-31T11:20:00.607Z,12.13
2019-03-31T11:21:11.128Z,12.05
2019-03-31T11:22:37.461Z,9.77
2019-03-31T11:23:43.333Z,11.30
2019-03-31T11:24:48.766Z,9.63
2019-03-31T11:25:54.535Z,9.90
2019-03-31T11:27:00.121Z,13.78
2019-03-31T11:28:06.574Z,10.83
2019-03-31T11:29:12.701Z,10.07
2019-03-31T11:30:18.432Z,12.37
2019-03-31T11:31:23.839Z,9.75
2019-03-31T11:32:29.594Z,13.53
2019-03-31T11:33:35.379Z,10.67
2019-03-31T11:34:40.637Z,10.33
2019-03-31T11:35:46.391Z,14.30
2019-03-31T11:36:51.806Z,8.47
2019-03-31T11:37:57.227Z,12.90
2019-03-31T11:39:02.800Z,12.53
2019-03-31T11:40:09.092Z,11.37
2019-03-31T11:41:14.698Z,12.77
2019-03-31T11:42:20.087Z,11.03
2019-03-31T11:43:26.843Z,10.83
2019-03-31T11:44:32.354Z,14.23
2019-03-31T11:45:37.860Z,16.73
2019-03-31T11:46:43.359Z,11.07
2019-03-31T11:47:49.247Z,11.93
2019-03-31T11:48:55.044Z,11.50
2019-03-31T11:50:00.679Z,10.70
2019-03-31T11:51:06.126Z,11.47
2019-03-31T11:52:11.936Z,8.70
2019-03-31T11:53:17.378Z,12.20
2019-03-31T11:54:24.566Z,9.90
2019-03-31T11:55:30.087Z,11.50
2019-03-31T11:56:37.252Z,12.13
2019-03-31T11:57:42.789Z,9.80
2019-03-31T11:58:48.343Z,13.30
2019-03-31T11:59:53.756Z,8.93
2019-03-31T12:00:59.250Z,11.47
2019-03-31T12:02:04.894Z,10.97
2019-03-31T12:03:10.609Z,12.07
2019-03-31T12:04:16.050Z,10.63
2019-03-31T12:05:21.883Z,19.07
2019-03-31T12:06:27.656Z,7.97
2019-03-31T12:07:46.693Z,9.67
2019-03-31T12:08:44.712Z,8.27
2019-03-31T12:09:50.620Z,8.07
2019-03-31T12:10:59.643Z,10.35
2019-03-31T12:12:08.218Z,10.57
2019-03-31T12:13:14.518Z,10.32
2019-03-31T12:14:20.043Z,8.87
2019-03-31T12:15:25.632Z,10.10
2019-03-31T12:16:31.332Z,10.25
2019-03-31T12:17:36.825Z,7.30
2019-03-31T12:18:42.259Z,8.25
2019-03-31T12:19:48.890Z,10.88
2019-03-31T12:20:54.431Z,8.95
2019-03-31T12:22:07.159Z,8.60
2019-03-31T12:23:15.265Z,7.10
2019-03-31T12:24:21.239Z,7.63
2019-03-31T12:25:32.372Z,6.23
2019-03-31T12:26:38.433Z,6.58
2019-03-31T12:27:43.981Z,8.50
2019-03-31T12:28:49.521Z,8.70
2019-03-31T12:29:55.069Z,7.80
2019-03-31T12:31:09.475Z,8.57
2019-03-31T12:32:16.823Z,9.80
2019-03-31T12:33:22.366Z,8.50
2019-03-31T12:34:31.421Z,8.03
2019-03-31T12:35:39.777Z,9.68
2019-03-31T12:36:45.554Z,12.58
2019-03-31T12:37:51.498Z,12.20
2019-03-31T12:38:57.065Z,8.10
2019-03-31T12:40:14.972Z,8.20
2019-03-31T12:41:23.962Z,9.07
2019-03-31T12:42:29.721Z,10.30
2019-03-31T12:43:35.366Z,10.10
2019-03-31T12:44:41.354Z,9.93
2019-03-31T12:45:53.884Z,8.75
2019-03-31T12:46:59.503Z,7.70
2019-03-31T12:48:13.055Z,6.90
2019-03-31T12:49:37.782Z,5.57
2019-03-31T12:51:11.452Z,7.40
2019-03-31T12:52:24.172Z,7.03
2019-03-31T12:53:29.709Z,8.73
2019-03-31T12:54:35.424Z,9.57
2019-03-31T12:55:41.538Z,7.15
2019-03-31T12:56:47.187Z,7.75
2019-03-31T12:57:55.548Z,8.05
2019-03-31T12:59:02.567Z,9.03
2019-03-31T13:00:08.915Z,8.50
2019-03-31T13:01:15.527Z,6.45
2019-03-31T13:02:21.382Z,8.17
2019-03-31T13:03:27.145Z,7.30
2019-03-31T13:04:33.125Z,9.18
2019-03-31T13:05:38.554Z,7.70
2019-03-31T13:06:44.063Z,5.72
2019-03-31T13:07:56.371Z,5.97
2019-03-31T13:08:57.246Z,9.37
2019-03-31T13:10:03.057Z,7.35
2019-03-31T13:11:08.478Z,10.18
2019-03-31T13:12:14.861Z,6.50
2019-03-31T13:13:20.416Z,8.05
2019-03-31T13:14:25.819Z,7.20
2019-03-31T13:15:31.659Z,9.73
2019-03-31T13:16:38.569Z,8.35
2019-03-31T13:17:47.112Z,8.93
2019-03-31T13:18:52.637Z,9.05
2019-03-31T13:20:17.895Z,6.87
2019-03-31T13:21:24.457Z,4.67
2019-03-31T13:22:30.301Z,5.62
2019-03-31T13:23:35.860Z,8.20
2019-03-31T13:24:41.462Z,9.33
2019-03-31T13:25:48.925Z,5.47
2019-03-31T13:26:54.709Z,4.45
2019-03-31T13:28:00.396Z,5.35
2019-03-31T13:29:06.069Z,6.03
2019-03-31T13:30:13.430Z,5.07
2019-03-31T13:31:19.459Z,6.40
2019-03-31T13:32:25.041Z,8.98
2019-03-31T13:33:30.494Z,4.50
2019-03-31T13:34:36.094Z,8.53
2019-03-31T13:35:41.610Z,5.53
2019-03-31T13:36:47.240Z,6.73
2019-03-31T13:37:53.031Z,4.03
2019-03-31T13:38:58.659Z,5.22
2019-03-31T13:40:07.372Z,6.60
2019-03-31T13:41:13.277Z,6.22
2019-03-31T13:42:19.143Z,5.58
2019-03-31T13:43:24.575Z,6.47
2019-03-31T13:44:30.664Z,4.33
2019-03-31T13:45:41.563Z,7.03
2019-03-31T13:46:50.642Z,6.00
2019-03-31T13:47:58.723Z,6.73
2019-03-31T13:49:06.063Z,9.78
2019-03-31T13:50:12.934Z,4.35
2019-03-31T13:51:28.149Z,5.03
2019-03-31T13:52:36.941Z,5.08
2019-03-31T13:53:42.633Z,5.22
2019-03-31T13:54:48.092Z,5.60
2019-03-31T13:55:54.088Z,5.55
2019-03-31T13:56:59.877Z,6.15
2019-03-31T13:58:13.935Z,7.53
2019-03-31T13:59:18.684Z,9.35
2019-03-31T14:00:57.205Z,7.60
2019-03-31T14:02:08.420Z,6.30
2019-03-31T14:03:14.637Z,8.00
2019-03-31T14:04:20.034Z,6.63
2019-03-31T14:05:37.409Z,6.72
2019-03-31T14:06:55.480Z,9.78
2019-03-31T14:08:04.460Z,3.97
2019-03-31T14:09:10.793Z,5.47
2019-03-31T14:10:16.891Z,5.92
2019-03-31T14:11:26.541Z,6.92
2019-03-31T14:12:51.118Z,7.07
2019-03-31T14:13:57.092Z,7.53
2019-03-31T14:15:02.866Z,5.35
2019-03-31T14:16:08.170Z,6.27
2019-03-31T14:17:14.220Z,5.37
2019-03-31T14:18:20.650Z,10.00